Time;durP1;ratioP1;P1;durP2;ratioP2;P2;SDS_P1;SDS_P2;PMS_P1;PMS_P2;Temp;Humidity;BMP_temperature;BMP_pressure;BME280_temperature;BME280_humidity;BME280_pressure;Samples;Min_cycle;Max_cycle;Signal;HPM_P1;HPM_P2
2024/04/04 00:02:05;;;;;;;15.82;2.88;;;;;;;;;;6161054;23;20029;-96
2024/04/04 00:04:30;;;;;;;5.28;1.00;;;;;;;;;;6160974;23;20016;-94
2024/04/04 00:06:56;;;;;;;1.13;0.90;;;;;;;;;;6160882;23;20001;-95
2024/04/04 00:09:21;;;;;;;1.13;0.70;;;;;;;;;;6161722;23;20000;-95
2024/04/04 00:11:46;;;;;;;1.95;0.93;;;;;;;;;;6185191;23;20009;-95
2024/04/04 00:14:11;;;;;;;1.58;0.90;;;;;;;;;;6185713;23;20348;-94
2024/04/04 00:16:37;;;;;;;1.73;0.85;;;;;;;;;;6186878;23;20044;-96
2024/04/04 00:19:03;;;;;;;3.17;1.00;;;;;;;;;;6186228;23;20381;-95
2024/04/04 00:21:29;;;;;;;3.28;0.93;;;;;;;;;;6186207;23;20001;-95
2024/04/04 00:23:56;;;;;;;1.20;0.70;;;;;;;;;;6186099;23;20088;-94
2024/04/04 00:26:21;;;;;;;1.85;1.00;;;;;;;;;;6185624;23;20000;-96
2024/04/04 00:28:47;;;;;;;1.27;0.93;;;;;;;;;;6185753;23;20080;-94
2024/04/04 00:31:12;;;;;;;2.53;1.45;;;;;;;;;;6185457;23;20439;-94
2024/04/04 00:33:37;;;;;;;1.92;1.25;;;;;;;;;;6185577;23;20020;-94
2024/04/04 00:36:03;;;;;;;1.00;0.85;;;;;;;;;;6185281;23;20453;-94
2024/04/04 00:38:28;;;;;;;2.03;1.42;;;;;;;;;;6185393;23;20013;-92
2024/04/04 00:40:53;;;;;;;2.60;1.60;;;;;;;;;;6185533;23;20036;-94
2024/04/04 00:43:18;;;;;;;2.13;1.58;;;;;;;;;;6185480;23;19997;-95
2024/04/04 00:45:44;;;;;;;1.65;1.35;;;;;;;;;;6185048;23;20143;-95
2024/04/04 00:48:10;;;;;;;2.92;1.70;;;;;;;;;;6185193;23;20102;-95
2024/04/04 00:50:35;;;;;;;1.50;1.40;;;;;;;;;;6185429;23;20057;-95
2024/04/04 00:53:01;;;;;;;2.70;1.30;;;;;;;;;;6185469;23;20012;-95
2024/04/04 00:55:26;;;;;;;2.58;1.85;;;;;;;;;;6185553;23;20008;-94
2024/04/04 00:57:52;;;;;;;2.20;2.00;;;;;;;;;;6184810;23;20467;-96
2024/04/04 01:00:18;;;;;;;2.35;1.70;;;;;;;;;;6185309;23;20009;-95
2024/04/04 01:02:43;;;;;;;6.20;1.60;;;;;;;;;;6185314;23;19993;-94
2024/04/04 01:05:08;;;;;;;3.97;1.60;;;;;;;;;;6183899;23;20008;-94
2024/04/04 01:07:34;;;;;;;2.73;1.60;;;;;;;;;;6185361;23;20009;-94
2024/04/04 01:10:03;;;;;;;2.17;1.88;;;;;;;;;;6185668;23;20554;-94
2024/04/04 01:12:28;;;;;;;2.47;1.40;;;;;;;;;;6185191;23;19997;-95
2024/04/04 01:14:53;;;;;;;3.73;1.37;;;;;;;;;;6184141;23;20009;-94
2024/04/04 01:17:19;;;;;;;1.43;1.33;;;;;;;;;;6184066;23;20219;-94
2024/04/04 01:19:44;;;;;;;2.88;1.42;;;;;;;;;;6184264;23;20237;-95
2024/04/04 01:22:09;;;;;;;3.67;1.35;;;;;;;;;;6184109;23;20416;-94
2024/04/04 01:24:35;;;;;;;2.80;1.40;;;;;;;;;;6185858;23;20000;-94
2024/04/04 01:27:00;;;;;;;3.53;1.50;;;;;;;;;;6184035;23;20325;-95
2024/04/04 01:29:25;;;;;;;1.95;1.33;;;;;;;;;;6185477;23;20230;-94
2024/04/04 01:31:50;;;;;;;2.23;1.13;;;;;;;;;;6184349;23;20001;-95
2024/04/04 01:34:15;;;;;;;2.63;1.10;;;;;;;;;;6184156;23;20258;-95
2024/04/04 01:36:41;;;;;;;3.25;1.52;;;;;;;;;;6185161;23;20579;-95
2024/04/04 01:39:06;;;;;;;3.07;1.33;;;;;;;;;;6184395;23;20007;-94
2024/04/04 01:41:31;;;;;;;8.18;1.98;;;;;;;;;;6184109;23;20242;-94
2024/04/04 01:43:56;;;;;;;6.57;2.72;;;;;;;;;;6184164;23;20499;-93
2024/04/04 01:46:22;;;;;;;6.22;1.48;;;;;;;;;;6183637;23;20082;-93
2024/04/04 01:48:47;;;;;;;5.72;1.35;;;;;;;;;;6183703;23;20001;-94
2024/04/04 01:51:12;;;;;;;4.90;1.30;;;;;;;;;;6184009;23;20025;-95
2024/04/04 01:53:39;;;;;;;8.75;1.40;;;;;;;;;;6183848;23;20005;-94
2024/04/04 01:56:04;;;;;;;12.10;1.77;;;;;;;;;;6184228;23;20001;-94
2024/04/04 01:58:29;;;;;;;7.82;1.60;;;;;;;;;;6184022;23;20020;-95
2024/04/04 02:00:54;;;;;;;10.48;1.65;;;;;;;;;;6183915;23;20043;-96
2024/04/04 02:03:20;;;;;;;10.35;1.80;;;;;;;;;;6184370;23;20431;-93
2024/04/04 02:05:45;;;;;;;8.45;1.52;;;;;;;;;;6184227;23;20337;-94
2024/04/04 02:08:10;;;;;;;14.07;1.92;;;;;;;;;;6183972;23;20001;-95
2024/04/04 02:10:36;;;;;;;12.50;2.30;;;;;;;;;;6183998;23;20096;-94
2024/04/04 02:13:02;;;;;;;12.52;2.85;;;;;;;;;;6183684;23;20068;-94
2024/04/04 02:15:27;;;;;;;8.10;1.88;;;;;;;;;;6184062;23;20001;-95
2024/04/04 02:17:53;;;;;;;11.32;2.30;;;;;;;;;;6183625;23;20408;-94
2024/04/04 02:20:18;;;;;;;18.33;3.13;;;;;;;;;;6183482;23;20004;-93
2024/04/04 02:22:43;;;;;;;16.33;2.10;;;;;;;;;;6183630;23;20088;-94
2024/04/04 02:25:10;;;;;;;14.23;2.70;;;;;;;;;;6184107;23;20001;-95
2024/04/04 02:27:35;;;;;;;12.65;2.15;;;;;;;;;;6184346;23;20015;-94
2024/04/04 02:30:00;;;;;;;16.60;2.45;;;;;;;;;;6184556;23;20028;-95
2024/04/04 02:32:27;;;;;;;17.75;2.38;;;;;;;;;;6184374;23;20004;-94
2024/04/04 02:34:52;;;;;;;11.25;1.95;;;;;;;;;;6183899;23;20016;-94
2024/04/04 02:37:17;;;;;;;14.68;2.72;;;;;;;;;;6183786;23;20005;-95
2024/04/04 02:39:42;;;;;;;13.25;2.03;;;;;;;;;;6185756;23;20076;-95
2024/04/04 02:42:08;;;;;;;15.93;2.42;;;;;;;;;;6184028;23;20443;-94
2024/04/04 02:44:33;;;;;;;18.90;3.33;;;;;;;;;;6185549;23;20004;-94
2024/04/04 02:46:59;;;;;;;19.38;2.83;;;;;;;;;;6184082;23;20475;-96
2024/04/04 02:49:24;;;;;;;23.70;3.43;;;;;;;;;;6184205;23;20332;-94
2024/04/04 02:51:49;;;;;;;21.42;3.25;;;;;;;;;;6183615;23;20535;-93
2024/04/04 02:54:14;;;;;;;24.17;4.70;;;;;;;;;;6183969;23;20045;-93
2024/04/04 02:56:39;;;;;;;20.17;3.33;;;;;;;;;;6182801;23;20254;-93
2024/04/04 02:59:05;;;;;;;28.10;3.42;;;;;;;;;;6183366;23;20390;-93
2024/04/04 03:01:30;;;;;;;28.75;3.92;;;;;;;;;;6183878;23;20059;-93
2024/04/04 03:03:55;;;;;;;25.60;3.78;;;;;;;;;;6183794;23;20025;-95
2024/04/04 03:06:20;;;;;;;24.47;3.73;;;;;;;;;;6183893;23;20049;-94
2024/04/04 03:08:46;;;;;;;23.48;3.20;;;;;;;;;;6183536;23;20670;-93
2024/04/04 03:11:11;;;;;;;23.65;4.80;;;;;;;;;;6183917;23;20008;-94
2024/04/04 03:13:37;;;;;;;28.60;4.38;;;;;;;;;;6183755;23;20016;-94
2024/04/04 03:16:03;;;;;;;19.55;3.65;;;;;;;;;;6183827;23;20001;-95
2024/04/04 03:18:28;;;;;;;22.13;4.15;;;;;;;;;;6183940;23;20031;-94
2024/04/04 03:20:53;;;;;;;27.60;4.40;;;;;;;;;;6183991;23;20088;-95
2024/04/04 03:23:19;;;;;;;21.23;4.75;;;;;;;;;;6184219;23;20498;-94
2024/04/04 03:25:44;;;;;;;27.50;4.05;;;;;;;;;;6183717;23;20093;-94
2024/04/04 03:28:10;;;;;;;32.65;4.10;;;;;;;;;;6183434;23;19989;-93
2024/04/04 03:30:35;;;;;;;16.67;3.30;;;;;;;;;;6184057;23;20024;-94
2024/04/04 03:33:00;;;;;;;24.07;3.77;;;;;;;;;;6184999;23;20005;-93
2024/04/04 03:35:26;;;;;;;20.75;3.47;;;;;;;;;;6185051;23;20281;-94
2024/04/04 03:37:51;;;;;;;15.40;3.03;;;;;;;;;;6185564;23;20160;-93
2024/04/04 03:40:16;;;;;;;17.13;2.65;;;;;;;;;;6186087;23;20001;-93
2024/04/04 03:42:42;;;;;;;13.95;2.50;;;;;;;;;;6185683;23;20056;-93
2024/04/04 03:45:10;;;;;;;12.32;2.80;;;;;;;;;;6189334;23;20001;-96
2024/04/04 03:47:36;;;;;;;14.88;3.08;;;;;;;;;;6185313;23;20005;-92
2024/04/04 03:50:02;;;;;;;11.52;2.85;;;;;;;;;;6185280;23;20321;-91
2024/04/04 03:52:28;;;;;;;12.35;1.90;;;;;;;;;;6184339;23;20028;-91
2024/04/04 03:54:53;;;;;;;16.13;2.10;;;;;;;;;;6184974;23;20063;-92
2024/04/04 03:57:18;;;;;;;16.02;2.47;;;;;;;;;;6185937;23;20019;-92
2024/04/04 03:59:43;;;;;;;14.98;2.13;;;;;;;;;;6186336;23;20004;-91
2024/04/04 04:02:09;;;;;;;14.05;2.17;;;;;;;;;;6185078;23;20275;-93
2024/04/04 04:04:34;;;;;;;11.23;1.83;;;;;;;;;;6185960;23;20369;-93
2024/04/04 04:06:59;;;;;;;9.77;2.00;;;;;;;;;;6184126;23;20023;-92
2024/04/04 04:09:24;;;;;;;15.15;2.72;;;;;;;;;;6183806;23;20246;-92
2024/04/04 04:11:50;;;;;;;15.60;1.88;;;;;;;;;;6184926;23;20004;-92
2024/04/04 04:14:15;;;;;;;13.02;2.50;;;;;;;;;;6185754;23;20051;-92
2024/04/04 04:16:41;;;;;;;14.70;2.25;;;;;;;;;;6158315;23;19997;-92
2024/04/04 04:19:06;;;;;;;14.43;1.75;;;;;;;;;;6159425;23;20324;-92
2024/04/04 04:21:31;;;;;;;11.03;2.23;;;;;;;;;;6159471;23;20001;-92
2024/04/04 04:23:58;;;;;;;11.63;1.70;;;;;;;;;;6185358;23;20693;-92
2024/04/04 04:26:24;;;;;;;9.95;1.45;;;;;;;;;;6158831;23;20234;-92
2024/04/04 04:28:49;;;;;;;10.25;2.60;;;;;;;;;;6159628;23;20004;-91
2024/04/04 04:31:40;;;;;;;13.65;1.90;;;;;;;;;;6185235;23;20031;-92
2024/04/04 04:34:06;;;;;;;14.77;2.80;;;;;;;;;;6179451;23;20033;-92
2024/04/04 04:36:32;;;;;;;13.03;1.83;;;;;;;;;;6159259;23;20227;-92
2024/04/04 04:38:57;;;;;;;15.68;2.38;;;;;;;;;;6159350;23;20227;-93
2024/04/04 04:41:22;;;;;;;15.77;2.20;;;;;;;;;;6158985;23;20001;-92
2024/04/04 04:43:48;;;;;;;16.17;1.97;;;;;;;;;;6159282;23;20428;-91
2024/04/04 04:46:14;;;;;;;12.00;2.85;;;;;;;;;;6157250;23;20228;-93
2024/04/04 04:48:39;;;;;;;15.20;2.47;;;;;;;;;;6158766;23;19997;-92
2024/04/04 04:51:04;;;;;;;12.93;1.55;;;;;;;;;;6157453;23;20478;-91
2024/04/04 04:53:30;;;;;;;14.38;2.22;;;;;;;;;;6184031;23;20012;-92
2024/04/04 04:55:55;;;;;;;13.40;2.58;;;;;;;;;;6184024;23;20019;-92
2024/04/04 04:58:20;;;;;;;9.60;1.42;;;;;;;;;;6184520;23;20004;-92
2024/04/04 05:00:46;;;;;;;7.38;1.15;;;;;;;;;;6183733;23;20535;-92
2024/04/04 05:03:11;;;;;;;7.88;1.10;;;;;;;;;;6184743;23;20004;-91
2024/04/04 05:05:36;;;;;;;9.65;1.63;;;;;;;;;;6159561;23;20032;-91
2024/04/04 05:08:02;;;;;;;10.70;1.23;;;;;;;;;;6184922;23;20031;-91
2024/04/04 05:10:29;;;;;;;9.60;1.08;;;;;;;;;;6166211;23;20268;-91
2024/04/04 05:12:55;;;;;;;12.55;1.95;;;;;;;;;;6183633;23;20002;-93
2024/04/04 05:15:20;;;;;;;9.85;1.30;;;;;;;;;;6182579;23;20008;-91
2024/04/04 05:17:45;;;;;;;13.00;1.33;;;;;;;;;;6182480;23;20504;-92
2024/04/04 05:20:13;;;;;;;9.48;1.38;;;;;;;;;;6183201;23;20689;-92
2024/04/04 05:22:38;;;;;;;9.00;1.25;;;;;;;;;;6184596;23;20046;-92
2024/04/04 05:25:03;;;;;;;9.13;1.70;;;;;;;;;;6184220;23;19993;-92
2024/04/04 05:27:28;;;;;;;5.55;0.82;;;;;;;;;;6183142;23;20285;-93
2024/04/04 05:29:54;;;;;;;13.73;1.63;;;;;;;;;;6183160;23;20309;-91
2024/04/04 05:32:19;;;;;;;9.65;1.30;;;;;;;;;;6183768;23;20592;-91
2024/04/04 05:34:47;;;;;;;12.65;1.67;;;;;;;;;;6182991;23;20095;-92
2024/04/04 05:37:12;;;;;;;8.93;2.42;;;;;;;;;;6184122;23;20428;-93
2024/04/04 05:39:37;;;;;;;9.10;1.63;;;;;;;;;;6183803;23;20004;-93
2024/04/04 05:42:03;;;;;;;12.27;1.17;;;;;;;;;;6183379;23;20391;-94
2024/04/04 05:44:28;;;;;;;5.82;1.05;;;;;;;;;;6183107;23;20064;-93
2024/04/04 05:46:54;;;;;;;6.38;1.30;;;;;;;;;;6183531;23;20031;-93
2024/04/04 05:49:19;;;;;;;11.25;1.30;;;;;;;;;;6183093;23;20033;-93
2024/04/04 05:51:44;;;;;;;11.63;1.10;;;;;;;;;;6182764;23;20005;-93
2024/04/04 05:54:09;;;;;;;8.97;1.10;;;;;;;;;;6183211;23;20428;-93
2024/04/04 05:56:35;;;;;;;9.90;1.02;;;;;;;;;;6183860;23;20273;-93
2024/04/04 05:59:00;;;;;;;6.03;1.30;;;;;;;;;;6185194;23;19996;-94
2024/04/04 06:01:25;;;;;;;12.88;1.83;;;;;;;;;;6184716;23;20001;-93
2024/04/04 06:03:50;;;;;;;9.98;1.50;;;;;;;;;;6184148;23;20022;-92
2024/04/04 06:06:16;;;;;;;8.82;1.02;;;;;;;;;;6184882;23;19993;-91
2024/04/04 06:08:41;;;;;;;9.10;1.30;;;;;;;;;;6184545;23;20012;-91
2024/04/04 06:11:06;;;;;;;14.35;2.53;;;;;;;;;;6183861;23;20001;-91
2024/04/04 06:13:31;;;;;;;9.70;1.60;;;;;;;;;;6184612;23;20016;-93
2024/04/04 06:16:01;;;;;;;15.93;2.27;;;;;;;;;;6186422;23;20227;-92
2024/04/04 06:18:26;;;;;;;5.97;1.02;;;;;;;;;;6158778;23;20403;-92
2024/04/04 06:20:52;;;;;;;11.57;2.20;;;;;;;;;;6158860;23;20089;-92
2024/04/04 06:23:17;;;;;;;11.20;1.58;;;;;;;;;;6158957;23;20005;-91
2024/04/04 06:25:42;;;;;;;7.87;1.10;;;;;;;;;;6186157;23;19997;-92
2024/04/04 06:28:07;;;;;;;10.52;1.35;;;;;;;;;;6159790;23;20713;-94
2024/04/04 06:30:33;;;;;;;14.73;1.77;;;;;;;;;;6166923;23;19997;-95
2024/04/04 06:32:58;;;;;;;15.15;1.85;;;;;;;;;;6164486;23;20488;-90
2024/04/04 06:35:23;;;;;;;11.13;1.50;;;;;;;;;;6183683;23;20001;-91
2024/04/04 06:37:49;;;;;;;43.15;5.35;;;;;;;;;;6184104;23;20063;-92
2024/04/04 06:40:14;;;;;;;13.88;1.75;;;;;;;;;;6183700;23;20004;-90
2024/04/04 06:42:39;;;;;;;9.55;1.85;;;;;;;;;;6157937;23;20001;-92
2024/04/04 06:45:05;;;;;;;10.77;1.40;;;;;;;;;;6185279;23;19989;-92
2024/04/04 06:47:30;;;;;;;6.85;1.23;;;;;;;;;;6158608;23;20005;-94
2024/04/04 06:50:03;;;;;;;11.93;1.33;;;;;;;;;;6179997;23;19996;-95
2024/04/04 06:52:28;;;;;;;8.23;1.27;;;;;;;;;;6195737;23;20028;-96
2024/04/04 06:54:57;;;;;;;9.30;1.30;;;;;;;;;;6207543;23;20021;-96
2024/04/04 06:57:22;;;;;;;11.95;1.95;;;;;;;;;;6226304;23;20768;-91
2024/04/04 06:59:47;;;;;;;7.80;1.88;;;;;;;;;;6238822;23;20001;-91
2024/04/04 07:02:13;;;;;;;6.57;1.00;;;;;;;;;;6214522;23;20008;-90
2024/04/04 07:04:38;;;;;;;12.18;1.35;;;;;;;;;;6216009;23;20043;-91
2024/04/04 07:07:04;;;;;;;5.50;1.13;;;;;;;;;;6214458;23;20000;-92
2024/04/04 07:09:29;;;;;;;8.35;1.27;;;;;;;;;;6214860;23;20218;-91
2024/04/04 07:11:54;;;;;;;9.87;1.10;;;;;;;;;;6214573;23;20006;-93
2024/04/04 07:14:19;;;;;;;9.83;1.00;;;;;;;;;;6238652;23;20282;-90
2024/04/04 07:16:44;;;;;;;8.27;1.43;;;;;;;;;;6214965;23;20245;-91
2024/04/04 07:19:10;;;;;;;14.43;1.90;;;;;;;;;;6214445;23;20577;-91
2024/04/04 07:21:35;;;;;;;11.90;1.57;;;;;;;;;;6214614;23;19992;-92
2024/04/04 07:24:00;;;;;;;5.65;1.00;;;;;;;;;;6238262;23;20231;-90
2024/04/04 07:26:25;;;;;;;8.23;1.17;;;;;;;;;;6212613;23;20075;-90
2024/04/04 07:28:51;;;;;;;8.77;1.70;;;;;;;;;;6213827;23;20050;-96
2024/04/04 07:31:17;;;;;;;3.72;0.77;;;;;;;;;;6237872;23;20004;-92
2024/04/04 07:33:42;;;;;;;8.95;1.10;;;;;;;;;;6237193;23;20443;-91
2024/04/04 07:36:07;;;;;;;7.00;0.90;;;;;;;;;;6213825;23;20335;-92
2024/04/04 07:38:33;;;;;;;3.58;0.90;;;;;;;;;;6214583;23;19996;-90
2024/04/04 07:41:03;;;;;;;3.63;1.50;;;;;;;;;;6212546;23;20002;-89
2024/04/04 07:43:28;;;;;;;8.00;1.30;;;;;;;;;;6213552;23;20450;-89
2024/04/04 07:45:53;;;;;;;9.20;1.00;;;;;;;;;;6213614;23;20013;-89
2024/04/04 07:48:18;;;;;;;10.83;0.90;;;;;;;;;;6213860;23;20222;-89
2024/04/04 07:50:47;;;;;;;13.57;1.40;;;;;;;;;;6211568;23;20222;-90
2024/04/04 07:53:12;;;;;;;5.30;0.80;;;;;;;;;;6213715;23;20708;-89
2024/04/04 07:55:37;;;;;;;11.25;1.50;;;;;;;;;;6212014;23;20016;-89
2024/04/04 07:58:03;;;;;;;13.00;1.83;;;;;;;;;;6213709;23;20008;-89
2024/04/04 08:00:28;;;;;;;9.63;2.05;;;;;;;;;;6213978;23;19997;-89
2024/04/04 08:02:53;;;;;;;8.13;1.30;;;;;;;;;;6211696;23;20039;-89
2024/04/04 08:05:19;;;;;;;9.70;1.65;;;;;;;;;;6212841;23;20469;-90
2024/04/04 08:07:45;;;;;;;14.73;1.38;;;;;;;;;;6237312;22;20547;-89
2024/04/04 08:10:10;;;;;;;14.23;1.48;;;;;;;;;;6212146;23;20024;-89
2024/04/04 08:12:36;;;;;;;12.32;1.55;;;;;;;;;;6213814;23;20320;-89
2024/04/04 08:15:04;;;;;;;11.70;1.90;;;;;;;;;;6214777;23;20046;-88
2024/04/04 08:17:33;;;;;;;11.27;2.10;;;;;;;;;;6215000;23;20019;-89
2024/04/04 08:19:59;;;;;;;7.63;1.63;;;;;;;;;;6214384;23;20001;-91
2024/04/04 08:22:24;;;;;;;10.52;1.38;;;;;;;;;;6215394;23;19996;-89
2024/04/04 08:24:50;;;;;;;13.90;1.67;;;;;;;;;;6215173;23;20254;-89
2024/04/04 08:27:15;;;;;;;10.15;1.60;;;;;;;;;;6215256;23;20000;-90
2024/04/04 08:29:40;;;;;;;7.78;1.83;;;;;;;;;;6214844;23;20317;-90
2024/04/04 08:32:06;;;;;;;9.55;1.20;;;;;;;;;;6215421;23;20004;-90
2024/04/04 08:34:32;;;;;;;8.98;0.95;;;;;;;;;;6213471;23;20036;-90
2024/04/04 08:36:57;;;;;;;12.93;1.80;;;;;;;;;;6214755;23;20416;-90
2024/04/04 08:39:23;;;;;;;10.93;1.23;;;;;;;;;;6214996;23;20079;-90
2024/04/04 08:41:48;;;;;;;4.57;0.73;;;;;;;;;;6215181;23;20425;-90
2024/04/04 08:44:13;;;;;;;13.07;2.45;;;;;;;;;;6214981;23;20639;-90
2024/04/04 08:46:39;;;;;;;5.68;0.90;;;;;;;;;;6215248;23;19996;-91
2024/04/04 08:49:06;;;;;;;4.95;0.77;;;;;;;;;;6213593;23;20004;-90
2024/04/04 08:51:31;;;;;;;7.60;0.77;;;;;;;;;;6214248;23;20507;-90
2024/04/04 08:53:57;;;;;;;6.93;1.98;;;;;;;;;;6214798;23;20036;-91
2024/04/04 08:56:22;;;;;;;10.45;0.90;;;;;;;;;;6214994;23;20004;-92
2024/04/04 08:58:47;;;;;;;5.63;0.98;;;;;;;;;;6215436;23;19989;-91
2024/04/04 09:01:13;;;;;;;6.30;0.73;;;;;;;;;;6213344;23;20031;-91
2024/04/04 09:03:41;;;;;;;4.68;0.52;;;;;;;;;;6241099;23;20238;-92
2024/04/04 09:06:07;;;;;;;4.60;0.93;;;;;;;;;;6212510;23;20406;-90
2024/04/04 09:08:32;;;;;;;2.92;0.65;;;;;;;;;;6240666;23;19997;-94
2024/04/04 09:10:58;;;;;;;5.85;0.93;;;;;;;;;;6215002;23;19996;-92
2024/04/04 09:13:26;;;;;;;10.07;2.13;;;;;;;;;;6214923;23;20264;-90
2024/04/04 09:15:58;;;;;;;7.25;1.10;;;;;;;;;;6238743;23;20074;-91
2024/04/04 09:18:23;;;;;;;6.82;1.02;;;;;;;;;;6238419;23;20442;-92
2024/04/04 09:21:01;;;;;;;7.10;1.40;;;;;;;;;;6239112;23;20001;-96
2024/04/04 09:23:29;;;;;;;5.80;0.88;;;;;;;;;;6244761;23;20221;-94
2024/04/04 09:25:54;;;;;;;7.82;1.70;;;;;;;;;;6215835;23;20011;-95
2024/04/04 09:28:20;;;;;;;15.20;0.90;;;;;;;;;;6216397;23;20452;-92
2024/04/04 09:30:48;;;;;;;12.20;1.83;;;;;;;;;;6213290;23;20072;-91
2024/04/04 09:33:14;;;;;;;10.75;2.03;;;;;;;;;;6214777;23;20442;-93
2024/04/04 09:35:40;;;;;;;16.45;1.55;;;;;;;;;;6215101;23;20038;-93
2024/04/04 09:38:06;;;;;;;11.73;1.73;;;;;;;;;;6214368;23;20328;-94
2024/04/04 09:40:32;;;;;;;10.77;1.88;;;;;;;;;;6213628;23;20009;-91
2024/04/04 09:43:00;;;;;;;11.23;1.63;;;;;;;;;;6214447;23;20001;-93
2024/04/04 09:45:27;;;;;;;6.90;1.20;;;;;;;;;;6205757;23;20016;-92
2024/04/04 09:47:52;;;;;;;14.07;2.05;;;;;;;;;;6203328;23;20055;-93
2024/04/04 09:50:18;;;;;;;10.07;2.53;;;;;;;;;;6208276;23;20005;-90
2024/04/04 09:52:44;;;;;;;11.13;1.63;;;;;;;;;;6208205;23;19994;-93
2024/04/04 09:55:10;;;;;;;13.15;2.78;;;;;;;;;;6213516;22;20019;-93
2024/04/04 09:57:36;;;;;;;13.85;2.78;;;;;;;;;;6212962;23;20336;-93
2024/04/04 10:00:13;;;;;;;9.70;1.30;;;;;;;;;;6208639;23;20002;-93
2024/04/04 10:02:42;;;;;;;10.13;2.08;;;;;;;;;;6208873;23;20401;-91
2024/04/04 10:05:25;;;;;;;11.02;1.50;;;;;;;;;;6184570;23;20016;-91
2024/04/04 10:07:50;;;;;;;9.27;1.73;;;;;;;;;;6208085;23;20047;-91
2024/04/04 10:10:20;;;;;;;7.88;1.45;;;;;;;;;;6208127;23;20005;-91
2024/04/04 10:12:49;;;;;;;6.97;1.50;;;;;;;;;;6208677;23;20008;-92
2024/04/04 10:15:18;;;;;;;12.00;1.95;;;;;;;;;;6207594;23;20036;-92
2024/04/04 10:17:44;;;;;;;7.97;1.52;;;;;;;;;;6184258;23;19997;-92
2024/04/04 10:20:10;;;;;;;12.27;1.25;;;;;;;;;;6207154;23;20076;-93
2024/04/04 10:22:50;;;;;;;13.50;1.83;;;;;;;;;;6207558;23;19994;-95
2024/04/04 10:25:22;;;;;;;5.32;1.20;;;;;;;;;;6171592;22;20380;-93
2024/04/04 10:27:48;;;;;;;10.65;2.35;;;;;;;;;;6128890;23;19997;-94
2024/04/04 10:30:13;;;;;;;6.55;1.30;;;;;;;;;;6129892;23;20443;-94
2024/04/04 10:32:40;;;;;;;27.88;2.42;;;;;;;;;;6154847;23;19997;-95
2024/04/04 10:35:05;;;;;;;10.05;1.98;;;;;;;;;;6128907;23;20009;-94
2024/04/04 10:37:30;;;;;;;12.23;1.60;;;;;;;;;;6156338;23;19994;-94
2024/04/04 10:39:56;;;;;;;14.18;1.83;;;;;;;;;;6155188;23;19998;-95
2024/04/04 10:42:22;;;;;;;8.25;1.33;;;;;;;;;;6128979;23;20001;-94
2024/04/04 10:44:51;;;;;;;8.13;1.63;;;;;;;;;;6133320;23;20033;-95
2024/04/04 10:47:20;;;;;;;8.77;1.50;;;;;;;;;;6162954;23;20073;-96
2024/04/04 10:49:46;;;;;;;14.93;2.22;;;;;;;;;;6164393;23;20119;-96
2024/04/04 10:52:19;;;;;;;19.80;2.03;;;;;;;;;;6233527;22;20016;-96
2024/04/04 10:54:44;;;;;;;4.50;1.23;;;;;;;;;;6234964;22;20013;-96
2024/04/04 10:57:10;;;;;;;10.00;1.40;;;;;;;;;;6194699;23;19997;-96
2024/04/04 11:02:19;;;;;;;11.35;1.70;;;;;;;;;;6200199;23;20084;-96
2024/04/04 11:04:45;;;;;;;12.68;2.10;;;;;;;;;;6200597;23;20443;-92
2024/04/04 11:07:10;;;;;;;9.30;2.10;;;;;;;;;;6214511;23;20003;-94
2024/04/04 11:09:35;;;;;;;10.33;1.77;;;;;;;;;;6238653;23;20000;-93
2024/04/04 11:12:00;;;;;;;7.00;1.77;;;;;;;;;;6239182;23;20234;-94
2024/04/04 11:14:26;;;;;;;8.13;1.42;;;;;;;;;;6214719;23;20420;-94
2024/04/04 11:16:53;;;;;;;7.07;1.48;;;;;;;;;;6238531;22;19997;-93
2024/04/04 11:19:20;;;;;;;6.10;1.40;;;;;;;;;;6238424;23;20008;-94
2024/04/04 11:21:47;;;;;;;9.85;1.40;;;;;;;;;;6238856;23;19997;-94
2024/04/04 11:24:12;;;;;;;7.68;1.60;;;;;;;;;;6239083;23;20011;-93
2024/04/04 11:26:37;;;;;;;10.05;1.55;;;;;;;;;;6213160;23;20344;-92
2024/04/04 11:29:03;;;;;;;9.70;2.17;;;;;;;;;;6214530;23;20080;-94
2024/04/04 11:31:28;;;;;;;10.45;1.70;;;;;;;;;;6238267;23;20229;-93
2024/04/04 11:33:53;;;;;;;9.30;1.55;;;;;;;;;;6238425;23;20011;-94
2024/04/04 11:36:19;;;;;;;8.15;1.48;;;;;;;;;;6238523;22;19997;-93
2024/04/04 11:38:44;;;;;;;6.88;1.73;;;;;;;;;;6238865;23;20024;-93
2024/04/04 11:41:10;;;;;;;6.53;1.63;;;;;;;;;;6214081;23;19996;-93
2024/04/04 11:43:35;;;;;;;13.88;2.08;;;;;;;;;;6238260;23;20273;-93
2024/04/04 11:46:01;;;;;;;6.75;1.50;;;;;;;;;;6237915;23;20004;-93
2024/04/04 11:48:30;;;;;;;13.07;2.13;;;;;;;;;;6238755;23;20001;-96
2024/04/04 11:50:55;;;;;;;10.13;1.33;;;;;;;;;;6215544;23;20316;-91
2024/04/04 11:53:20;;;;;;;8.95;1.70;;;;;;;;;;6239497;23;20012;-92
2024/04/04 11:55:46;;;;;;;9.68;1.30;;;;;;;;;;6215873;23;20421;-92
2024/04/04 11:58:11;;;;;;;6.07;1.30;;;;;;;;;;6239420;22;20000;-92
2024/04/04 12:00:37;;;;;;;7.00;1.15;;;;;;;;;;6239466;23;19997;-91
2024/04/04 12:03:05;;;;;;;9.20;1.33;;;;;;;;;;6239802;23;20378;-94
2024/04/04 12:05:34;;;;;;;9.43;2.67;;;;;;;;;;6217050;23;20064;-95
2024/04/04 12:07:59;;;;;;;10.60;1.33;;;;;;;;;;6251857;22;20000;-96
2024/04/04 12:10:25;;;;;;;5.20;1.38;;;;;;;;;;6222374;22;20024;-95
2024/04/04 12:12:53;;;;;;;4.82;0.73;;;;;;;;;;6190397;23;20032;-95
2024/04/04 12:15:18;;;;;;;4.70;1.17;;;;;;;;;;6190808;23;20017;-95
2024/04/04 12:17:46;;;;;;;5.35;0.82;;;;;;;;;;6186749;23;20059;-96
2024/04/04 12:20:19;;;;;;;6.00;1.13;;;;;;;;;;6185308;23;20005;-96
2024/04/04 12:22:44;;;;;;;5.97;0.63;;;;;;;;;;6186627;23;20001;-96
2024/04/04 12:25:15;;;;;;;4.47;0.98;;;;;;;;;;6186547;23;20008;-96
2024/04/04 12:27:40;;;;;;;4.90;0.60;;;;;;;;;;6187287;23;20013;-95
2024/04/04 12:30:05;;;;;;;4.30;0.60;;;;;;;;;;6186589;23;20008;-96
2024/04/04 12:32:31;;;;;;;4.50;0.57;;;;;;;;;;6186449;23;20076;-96
2024/04/04 12:34:56;;;;;;;4.70;0.63;;;;;;;;;;6185930;23;20099;-96
2024/04/04 12:37:21;;;;;;;2.75;0.32;;;;;;;;;;6186281;23;20069;-96
2024/04/04 12:39:47;;;;;;;2.95;0.47;;;;;;;;;;6186272;23;20001;-95
2024/04/04 12:42:12;;;;;;;4.47;1.13;;;;;;;;;;6185824;23;19993;-95
2024/04/04 12:44:43;;;;;;;3.58;0.80;;;;;;;;;;6185572;23;20012;-96
2024/04/04 12:47:09;;;;;;;3.85;0.60;;;;;;;;;;6186045;23;20088;-96
2024/04/04 12:49:34;;;;;;;1.67;0.60;;;;;;;;;;6186939;23;20431;-96
2024/04/04 12:52:01;;;;;;;6.13;1.02;;;;;;;;;;6185570;23;20005;-95
2024/04/04 12:54:26;;;;;;;2.65;0.68;;;;;;;;;;6185607;23;20044;-95
2024/04/04 12:56:51;;;;;;;3.97;0.77;;;;;;;;;;6185419;23;20412;-95
2024/04/04 12:59:17;;;;;;;4.30;0.70;;;;;;;;;;6186377;23;20009;-96
2024/04/04 13:01:42;;;;;;;7.30;0.60;;;;;;;;;;6186127;23;20004;-96
2024/04/04 13:04:07;;;;;;;4.90;1.02;;;;;;;;;;6187296;23;20005;-96
2024/04/04 13:06:32;;;;;;;2.83;0.52;;;;;;;;;;6186712;23;20020;-96
2024/04/04 13:08:58;;;;;;;4.07;1.23;;;;;;;;;;6186334;23;20355;-96
2024/04/04 13:11:23;;;;;;;4.68;0.90;;;;;;;;;;6185870;23;19997;-95
2024/04/04 13:13:48;;;;;;;3.80;1.02;;;;;;;;;;6186143;23;20012;-96
2024/04/04 13:16:13;;;;;;;5.68;1.05;;;;;;;;;;6186247;23;20305;-96
2024/04/04 13:18:40;;;;;;;3.47;0.75;;;;;;;;;;6186617;23;20072;-95
2024/04/04 13:21:06;;;;;;;6.30;0.93;;;;;;;;;;6186208;23;20044;-95
2024/04/04 13:23:31;;;;;;;5.32;1.20;;;;;;;;;;6185349;23;20001;-96
2024/04/04 13:25:56;;;;;;;2.88;0.57;;;;;;;;;;6186345;23;20328;-96
2024/04/04 13:28:21;;;;;;;6.88;1.10;;;;;;;;;;6186092;23;19997;-95
2024/04/04 13:30:47;;;;;;;6.28;1.38;;;;;;;;;;6186442;23;20005;-96
2024/04/04 13:33:12;;;;;;;6.10;1.23;;;;;;;;;;6186302;23;19997;-96
2024/04/04 13:35:38;;;;;;;5.60;1.23;;;;;;;;;;6186164;23;20012;-96
2024/04/04 13:38:03;;;;;;;7.65;1.17;;;;;;;;;;6186027;23;19993;-96
2024/04/04 13:40:28;;;;;;;4.68;0.95;;;;;;;;;;6185766;23;20039;-96
2024/04/04 13:42:54;;;;;;;8.18;1.20;;;;;;;;;;6185947;23;20033;-95
2024/04/04 13:45:21;;;;;;;6.82;2.10;;;;;;;;;;6186087;23;20416;-96
2024/04/04 13:47:46;;;;;;;6.40;1.40;;;;;;;;;;6186080;23;20005;-95
2024/04/04 13:50:12;;;;;;;6.93;1.17;;;;;;;;;;6185909;23;20462;-96
2024/04/04 13:52:37;;;;;;;7.07;1.20;;;;;;;;;;6185686;23;20075;-96
2024/04/04 13:55:02;;;;;;;9.77;1.17;;;;;;;;;;6185927;23;20051;-96
2024/04/04 13:57:28;;;;;;;7.32;1.30;;;;;;;;;;6186928;23;20016;-96
2024/04/04 13:59:54;;;;;;;8.38;1.27;;;;;;;;;;6187916;23;20005;-96
2024/04/04 14:02:19;;;;;;;7.53;1.35;;;;;;;;;;6188202;23;20020;-96
2024/04/04 14:04:46;;;;;;;9.43;1.15;;;;;;;;;;6189050;23;20467;-96
2024/04/04 14:07:14;;;;;;;5.28;1.45;;;;;;;;;;6186610;23;19997;-96
2024/04/04 14:09:40;;;;;;;9.02;1.38;;;;;;;;;;6188260;23;20001;-95
2024/04/04 14:12:05;;;;;;;6.68;1.00;;;;;;;;;;6192488;23;20009;-96
2024/04/04 14:17:09;;;;;;;10.77;2.35;;;;;;;;;;6256411;23;20020;-96
2024/04/04 14:19:34;;;;;;;8.05;2.15;;;;;;;;;;6259591;23;20034;-96
2024/04/04 14:21:59;;;;;;;10.13;1.55;;;;;;;;;;6261219;23;20046;-96
2024/04/04 14:24:28;;;;;;;10.43;1.65;;;;;;;;;;6256248;23;20470;-96
2024/04/04 14:26:54;;;;;;;7.43;1.27;;;;;;;;;;6246185;23;20074;-96
2024/04/04 14:29:19;;;;;;;5.43;1.10;;;;;;;;;;6248113;23;20019;-96
2024/04/04 14:31:46;;;;;;;6.72;1.42;;;;;;;;;;6245682;23;20000;-96
2024/04/04 14:34:12;;;;;;;4.60;1.40;;;;;;;;;;6247107;23;20294;-95
2024/04/04 14:36:39;;;;;;;6.65;1.23;;;;;;;;;;6255172;22;20012;-96